Terminal Aerodrome Forecast
Issued by NWS Austin/San Antonio, TX

Home | Current Version | Previous Version | Text Only | Print | Product List | Glossary On
Versions: 1 2 3 4 5 6 7 8 9 10 11 12 13 14 15 16 17
517
FTUS44 KEWX 271038 CCA
TAFSAT
TAF COR
KSAT 271038Z 2711/2812 13006KT P6SM OVC014
     FM271200 18005KT 6SM BR OVC009
     FM271500 19005KT P6SM BKN025
     FM271700 16007KT P6SM BKN040
     FM280600 14007KT 5SM BR OVC007=

USA.gov is the U.S. government's official web portal to all federal, state and local government web resources and services.